Time;durP1;ratioP1;P1;durP2;ratioP2;P2;SDS_P1;SDS_P2;PMS_P1;PMS_P2;Temp;Humidity;BMP_temperature;BMP_pressure;BME280_temperature;BME280_humidity;BME280_pressure;Samples;Min_cycle;Max_cycle;Signal;HPM_P1;HPM_P2
2024/02/04 00:00:46;;;;;;;;;54.75;42.75;;;;;5.14;58.63;101680.41;146610;584;46016;-69
2024/02/04 00:03:45;;;;;;;;;49.75;37.25;;;;;5.08;58.65;101674.00;146615;621;46010;-70
2024/02/04 00:06:39;;;;;;;;;45.50;37.75;;;;;5.06;58.90;101678.09;146609;565;47016;-69
2024/02/04 00:09:31;;;;;;;;;49.25;37.50;;;;;5.04;58.25;101671.91;146615;570;46010;-70
2024/02/04 00:12:29;;;;;;;;;40.00;33.75;;;;;5.03;57.83;101690.66;146611;603;46014;-70
2024/02/04 00:15:43;;;;;;;;;72.75;54.75;;;;;3.67;56.71;101439.69;146617;601;46020;-69
2024/02/04 00:18:47;;;;;;;;;47.25;35.75;;;;;5.06;58.35;101685.78;146611;606;47016;-70
2024/02/04 00:21:43;;;;;;;;;35.50;31.25;;;;;5.08;58.45;101675.66;146615;694;46010;-70
2024/02/04 00:24:50;;;;;;;;;49.00;37.00;;;;;5.07;58.13;101674.75;146611;654;46017;-70
2024/02/04 00:27:54;;;;;;;;;46.75;37.00;;;;;5.08;57.68;101670.53;146616;630;46020;-69
2024/02/04 00:30:55;;;;;;;;;41.00;34.25;;;;;5.12;57.10;101676.84;146613;564;46012;-69
2024/02/04 00:33:50;;;;;;;;;35.50;32.25;;;;;5.14;57.38;101670.13;146617;618;46021;-68
2024/02/04 00:36:43;;;;;;;;;42.75;35.25;;;;;5.14;57.64;101670.13;146613;631;46016;-68
2024/02/04 00:39:35;;;;;;;;;46.75;34.75;;;;;5.12;57.65;101663.97;146613;636;47021;-69
2024/02/04 00:42:32;;;;;;;;;37.50;30.75;;;;;5.06;58.58;101660.09;146612;617;46016;-69
2024/02/04 00:45:27;;;;;;;;;34.75;29.75;;;;;5.04;58.29;101663.28;146612;621;47010;-67
2024/02/04 00:48:22;;;;;;;;;36.75;31.75;;;;;5.02;57.81;101659.69;146613;587;46016;-68
2024/02/04 00:51:17;;;;;;;;;29.75;25.75;;;;;5.03;57.33;101654.69;146615;621;47010;-69
2024/02/04 00:54:17;;;;;;;;;30.75;27.50;;;;;5.04;57.78;101653.91;146614;596;46012;-67
2024/02/04 00:57:25;;;;;;;;;46.75;35.00;;;;;5.03;57.55;101651.22;146613;586;46020;-69
2024/02/04 01:00:27;;;;;;;;;28.75;23.25;;;;;5.00;57.98;101656.97;146610;581;46911;-67
2024/02/04 01:03:20;;;;;;;;;27.00;24.75;;;;;4.97;57.87;101653.25;146615;624;48010;-68
2024/02/04 01:06:16;;;;;;;;;20.75;19.50;;;;;4.96;58.23;101648.88;146611;569;47016;-69
2024/02/04 01:09:19;;;;;;;;;30.75;26.25;;;;;4.92;56.89;101644.22;146611;699;47021;-69
2024/02/04 01:12:13;;;;;;;;;23.00;20.00;;;;;4.94;57.75;101634.97;146610;612;47012;-70
2024/02/04 01:15:13;;;;;;;;;28.50;24.75;;;;;5.00;57.10;101633.84;146616;641;46010;-69
2024/02/04 01:18:15;;;;;;;;;25.50;21.50;;;;;5.05;57.42;101634.28;146614;578;46014;-70
2024/02/04 01:21:11;;;;;;;;;27.25;23.50;;;;;5.10;56.75;101644.16;146617;563;47010;-69
2024/02/04 01:24:10;;;;;;;;;23.00;20.75;;;;;5.21;56.61;101639.97;146607;642;47016;-70
2024/02/04 01:27:03;;;;;;;;;29.25;22.00;;;;;5.25;56.42;101638.56;146614;766;46010;-68
2024/02/04 01:30:01;;;;;;;;;24.50;22.25;;;;;5.29;56.42;101635.47;146612;637;46016;-69
2024/02/04 01:32:55;;;;;;;;;24.75;19.50;;;;;5.26;56.80;101642.94;146615;588;46010;-69
2024/02/04 01:35:52;;;;;;;;;20.25;18.00;;;;;5.22;56.56;101628.00;146613;710;47012;-68
2024/02/04 01:38:49;;;;;;;;;24.25;21.75;;;;;5.21;56.46;101626.22;146615;594;46020;-68
2024/02/04 01:41:50;;;;;;;;;20.75;17.25;;;;;5.19;57.32;101618.34;146612;574;46016;-68
2024/02/04 01:44:57;;;;;;;;;;;;;;;;;;;;;
2024/02/04 01:48:00;;;;;;;;;19.25;16.25;;;;;5.15;56.80;101623.13;146613;640;46019;-70
2024/02/04 01:50:57;;;;;;;;;14.25;13.75;;;;;5.21;56.36;101631.38;146616;574;46010;-68
2024/02/04 01:53:59;;;;;;;;;16.75;15.00;;;;;5.24;56.89;101627.38;146613;579;46013;-68
2024/02/04 01:57:13;;;;;;;;;;;;;;;;;;;;;
2024/02/04 02:00:26;;;;;;;;;19.75;16.50;;;;;5.18;56.42;101625.94;146611;579;46017;-69
2024/02/04 02:03:32;;;;;;;;;19.25;16.75;;;;;5.12;58.14;101626.31;146616;573;46020;-68
2024/02/04 02:06:26;;;;;;;;;20.50;17.25;;;;;5.03;57.56;101628.06;146615;566;46014;-68
2024/02/04 02:09:26;;;;;;;;;19.25;18.00;;;;;4.99;57.73;101633.72;146615;638;46010;-70
2024/02/04 02:12:31;;;;;;;;;15.75;15.25;;;;;4.95;57.38;101637.66;146613;583;47012;-69
2024/02/04 02:15:36;;;;;;;;;16.50;16.25;;;;;4.86;58.39;101636.87;146616;650;47020;-69
2024/02/04 02:19:02;;;;;;;;;24.75;20.00;;;;;4.79;57.76;101632.84;146612;583;46016;-69
2024/02/04 02:22:41;;;;;;;;;18.75;16.75;;;;;4.82;57.62;101627.97;146616;601;47010;-68
2024/02/04 02:25:39;;;;;;;;;17.50;16.25;;;;;4.79;58.73;101624.25;146612;572;46016;-69
2024/02/04 02:28:49;;;;;;;;;14.50;12.50;;;;;4.76;58.18;101630.00;146616;636;47020;-69
2024/02/04 02:31:48;;;;;;;;;14.75;9.25;;;;;4.77;59.03;101621.56;146612;597;46017;-68
2024/02/04 02:34:44;;;;;;;;;12.75;11.00;;;;;4.84;58.40;101615.28;146619;594;46020;-72
2024/02/04 02:38:13;;;;;;;;;13.25;12.25;;;;;2.66;57.34;101213.69;146614;581;46017;-72
2024/02/04 02:41:13;;;;;;;;;8.50;8.50;;;;;4.93;58.12;101617.78;146619;621;45020;-71
2024/02/04 02:44:07;;;;;;;;;10.25;10.00;;;;;4.95;57.88;101616.22;146617;621;46016;-71
2024/02/04 02:47:02;;;;;;;;;13.00;12.00;;;;;5.02;57.68;101618.56;146617;594;45021;-70
2024/02/04 02:49:58;;;;;;;;;12.50;12.25;;;;;5.12;57.34;101630.56;146612;615;47014;-68
2024/02/04 02:52:55;;;;;;;;;17.25;13.25;;;;;5.15;58.24;101623.13;146616;639;46021;-66
2024/02/04 02:55:49;;;;;;;;;14.00;14.00;;;;;5.10;57.54;101631.31;146612;605;46016;-67
2024/02/04 02:58:51;;;;;;;;;16.50;15.00;;;;;5.03;59.45;101623.84;146632;569;46010;-69
2024/02/04 03:01:56;;;;;;;;;20.50;17.75;;;;;4.92;58.41;101627.13;146632;580;46012;-68
2024/02/04 03:04:57;;;;;;;;;22.00;20.00;;;;;4.80;57.92;101624.41;146631;667;45020;-68
2024/02/04 03:07:49;;;;;;;;;19.25;16.50;;;;;4.75;58.26;101619.59;146631;650;45017;-70
2024/02/04 03:10:58;;;;;;;;;24.50;23.00;;;;;4.76;58.81;101634.25;146631;668;45020;-68
2024/02/04 03:14:02;;;;;;;;;22.00;16.25;;;;;4.75;60.40;101635.91;146632;620;46038;-69
2024/02/04 03:16:58;;;;;;;;;16.50;12.75;;;;;4.71;59.41;101632.97;146633;606;46010;-70
2024/02/04 03:19:56;;;;;;;;;14.00;14.00;;;;;4.67;58.84;101633.44;146629;602;46014;-69
2024/02/04 03:22:55;;;;;;;;;17.00;13.75;;;;;4.61;60.86;101628.62;146634;635;45030;-70
2024/02/04 03:26:03;;;;;;;;;14.00;13.00;;;;;3.13;58.89;101386.13;146630;613;45036;-69
2024/02/04 03:29:18;;;;;;;;;14.75;13.50;;;;;4.52;58.94;101631.31;146633;644;45013;-69
2024/02/04 03:32:17;;;;;;;;;13.00;11.00;;;;;4.53;59.40;101629.66;146632;570;45012;-70
2024/02/04 03:35:17;;;;;;;;;14.75;12.25;;;;;4.54;59.50;101624.62;146634;629;45020;-69
2024/02/04 03:38:10;;;;;;;;;17.00;12.00;;;;;4.53;60.39;101622.84;146630;578;46012;-71
2024/02/04 03:41:10;;;;;;;;;11.25;11.25;;;;;4.46;60.40;101615.34;146631;565;45012;-71
2024/02/04 03:44:06;;;;;;;;;16.75;14.50;;;;;4.38;60.03;101617.22;146632;577;45016;-68
2024/02/04 03:47:03;;;;;;;;;13.00;12.75;;;;;4.39;60.15;101623.25;146634;659;45012;-69
2024/02/04 03:49:59;;;;;;;;;11.00;10.00;;;;;4.41;59.48;101624.28;146630;563;45913;-67
2024/02/04 03:53:03;;;;;;;;;12.50;10.75;;;;;4.45;59.99;101631.50;146632;563;45021;-68
2024/02/04 03:56:01;;;;;;;;;9.75;9.00;;;;;4.43;60.41;101627.91;146632;631;46012;-68
2024/02/04 03:58:57;;;;;;;;;25.75;23.00;;;;;4.32;61.67;101611.53;146631;581;46020;-69
2024/02/04 04:01:57;;;;;;;;;20.25;16.75;;;;;4.27;61.55;101615.38;146633;590;45016;-67
2024/02/04 04:04:59;;;;;;;;;21.50;15.50;;;;;4.19;61.33;101611.19;146631;575;48010;-67
2024/02/04 04:08:07;;;;;;;;;21.00;18.00;;;;;4.14;61.71;101608.22;146633;608;45017;-70
2024/02/04 04:11:01;;;;;;;;;22.50;19.75;;;;;4.15;61.24;101609.13;146634;696;45042;-71
2024/02/04 04:13:57;;;;;;;;;16.00;13.00;;;;;4.18;61.11;101595.66;146628;569;45016;-71
2024/02/04 04:16:50;;;;;;;;;18.00;15.25;;;;;4.21;61.33;101590.81;146634;577;45020;-70
2024/02/04 04:19:48;;;;;;;;;19.75;16.25;;;;;4.24;61.25;101596.22;146630;568;46012;-68
2024/02/04 04:22:47;;;;;;;;;20.00;13.75;;;;;4.30;60.38;101599.31;146633;573;45010;-70
2024/02/04 04:25:52;;;;;;;;;;;;;;;;;;;;;
2024/02/04 04:29:04;;;;;;;;;23.50;21.50;;;;;4.32;59.21;101608.97;146636;603;45010;-69
2024/02/04 04:31:57;;;;;;;;;22.50;21.25;;;;;4.36;60.02;101611.06;146630;606;46016;-69
2024/02/04 04:34:55;;;;;;;;;20.00;18.00;;;;;4.43;60.32;101616.75;146634;618;45020;-68
2024/02/04 04:37:52;;;;;;;;;22.75;20.25;;;;;4.39;60.89;101611.34;146632;564;45017;-68
2024/02/04 04:40:50;;;;;;;;;23.25;21.50;;;;;4.33;60.12;101615.91;146631;565;45020;-68
2024/02/04 04:43:46;;;;;;;;;24.50;21.75;;;;;4.29;59.64;101602.66;146634;589;45016;-68
2024/02/04 04:46:42;;;;;;;;;25.00;21.50;;;;;4.26;60.33;101613.53;146635;575;45028;-68
2024/02/04 04:49:35;;;;;;;;;26.00;19.75;;;;;4.19;60.72;101610.28;146633;571;45012;-70
2024/02/04 04:52:30;;;;;;;;;19.25;17.50;;;;;4.21;60.71;101619.03;146636;603;46010;-72
2024/02/04 04:55:24;;;;;;;;;19.75;16.75;;;;;4.12;61.05;101630.28;146631;571;45016;-72
2024/02/04 04:58:27;;;;;;;;;22.25;22.25;;;;;4.02;61.30;101625.06;146619;566;45021;-68
2024/02/04 05:01:20;;;;;;;;;22.50;19.50;;;;;3.97;61.95;101638.22;146614;670;46012;-70
2024/02/04 05:04:27;;;;;;;;;21.75;17.25;;;;;3.93;61.97;101634.50;146620;592;45020;-70
2024/02/04 05:07:22;;;;;;;;;25.75;19.00;;;;;3.90;62.18;101632.53;146616;600;47012;-69
2024/02/04 05:10:36;;;;;;;;;23.75;18.50;;;;;3.90;62.61;101635.09;146616;563;45998;-70
2024/02/04 05:13:32;;;;;;;;;28.00;19.75;;;;;3.82;62.69;101630.91;146615;570;46016;-69
2024/02/04 05:16:26;;;;;;;;;17.50;16.75;;;;;3.80;63.56;101627.31;146619;638;46010;-70
2024/02/04 05:19:25;;;;;;;;;13.00;12.00;;;;;3.76;64.61;101637.16;146616;581;46012;-70
2024/02/04 05:22:27;;;;;;;;;18.00;15.00;;;;;3.72;63.05;101637.63;146616;574;46011;-69
2024/02/04 05:25:22;;;;;;;;;22.25;16.75;;;;;3.72;63.26;101630.84;146609;620;47030;-70
2024/02/04 05:28:18;;;;;;;;;22.00;19.75;;;;;3.76;63.09;101642.28;146615;592;47013;-68
2024/02/04 05:31:10;;;;;;;;;25.25;23.00;;;;;3.83;63.25;101640.44;146615;672;46014;-69
2024/02/04 05:34:12;;;;;;;;;27.00;19.50;;;;;3.88;62.70;101628.03;146617;577;46020;-69
2024/02/04 05:37:05;;;;;;;;;22.25;20.75;;;;;4.07;62.44;101644.34;146612;628;47012;-71
2024/02/04 05:40:03;;;;;;;;;32.25;26.50;;;;;4.23;61.83;101644.06;146613;632;46012;-71
2024/02/04 05:43:17;;;;;;;;;;;;;;;;;;;;;
2024/02/04 05:46:17;;;;;;;;;26.25;24.50;;;;;4.22;62.14;101649.97;146618;589;46012;-72
2024/02/04 05:49:10;;;;;;;;;30.00;28.00;;;;;4.16;62.57;101642.63;146610;581;47012;-71
2024/02/04 05:52:14;;;;;;;;;27.75;25.00;;;;;4.13;63.20;101651.69;146616;608;46021;-68
2024/02/04 05:55:24;;;;;;;;;26.75;23.50;;;;;4.10;62.34;101633.44;146611;565;46016;-66
2024/02/04 05:58:17;;;;;;;;;28.25;25.25;;;;;4.12;63.89;101643.09;146618;577;46011;-68
2024/02/04 06:01:13;;;;;;;;;31.25;28.50;;;;;4.13;62.76;101644.00;146611;622;47913;-67
2024/02/04 06:04:19;;;;;;;;;30.00;23.25;;;;;4.19;62.94;101633.41;146617;736;48010;-67
2024/02/04 06:07:20;;;;;;;;;28.00;25.50;;;;;4.24;63.15;101633.06;146616;658;46016;-67
2024/02/04 06:10:31;;;;;;;;;28.75;21.00;;;;;4.37;63.33;101642.78;146614;580;46020;-69
2024/02/04 06:13:26;;;;;;;;;25.00;21.25;;;;;4.51;63.44;101633.72;146614;610;46914;-69
2024/02/04 06:16:34;;;;;;;;;21.00;19.25;;;;;4.69;63.49;101647.31;146615;638;46017;-69
2024/02/04 06:19:29;;;;;;;;;22.75;21.50;;;;;4.92;63.19;101651.91;146613;628;47013;-68
2024/02/04 06:22:33;;;;;;;;;17.50;16.75;;;;;5.14;61.48;101654.72;146614;782;46010;-68
2024/02/04 06:25:36;;;;;;;;;27.50;23.25;;;;;5.47;62.04;101651.59;146613;604;47012;-68
2024/02/04 06:28:39;;;;;;;;;18.50;17.50;;;;;6.18;60.15;101653.38;146616;569;46021;-70
2024/02/04 06:31:37;;;;;;;;;20.00;18.50;;;;;7.23;59.74;101657.59;146616;615;46016;-69
2024/02/04 06:34:46;;;;;;;;;27.00;22.50;;;;;8.37;54.98;101659.50;146612;616;47020;-69
2024/02/04 06:37:50;;;;;;;;;29.75;28.75;;;;;9.42;51.03;101646.53;146615;608;46012;-71
2024/02/04 06:40:47;;;;;;;;;26.00;23.50;;;;;10.30;49.73;101643.09;146613;569;46020;-71
2024/02/04 06:43:41;;;;;;;;;25.25;23.50;;;;;11.10;49.38;101635.34;146612;581;47012;-71
2024/02/04 06:46:38;;;;;;;;;25.50;22.00;;;;;11.86;46.36;101643.53;146611;571;46020;-71
2024/02/04 06:49:31;;;;;;;;;26.75;24.25;;;;;12.56;46.79;101652.91;146607;578;47016;-70
2024/02/04 06:52:23;;;;;;;;;18.50;18.25;;;;;13.34;44.37;101653.84;146613;570;46020;-71
2024/02/04 06:55:22;;;;;;;;;25.50;22.25;;;;;14.14;42.97;101665.91;146611;638;47012;-70
2024/02/04 06:58:17;;;;;;;;;31.00;27.50;;;;;14.86;41.44;101656.50;146616;569;46030;-69
2024/02/04 07:01:27;;;;;;;;;38.25;33.25;;;;;15.41;41.33;101666.97;146614;595;46037;-70
2024/02/04 07:04:28;;;;;;;;;57.00;42.25;;;;;15.85;38.95;101655.06;146614;584;46021;-70
2024/02/04 07:07:35;;;;;;;;;46.25;35.75;;;;;15.84;37.66;101655.88;146608;600;47016;-71
2024/02/04 07:10:28;;;;;;;;;45.50;35.50;;;;;15.45;38.49;101663.66;146613;629;46020;-71
2024/02/04 07:13:27;;;;;;;;;41.00;33.50;;;;;15.30;38.78;101652.53;146611;575;46016;-71
2024/02/04 07:16:39;;;;;;;;;46.00;36.75;;;;;15.07;39.21;101648.81;146617;614;47027;-70
2024/02/04 07:19:31;;;;;;;;;48.75;39.75;;;;;14.78;38.48;101646.56;146611;564;46017;-71
2024/02/04 07:22:28;;;;;;;;;63.75;50.00;;;;;14.46;38.00;101631.91;146614;579;46031;-70
2024/02/04 07:25:39;;;;;;;;;;;;;;;;;;;;;
2024/02/04 07:28:34;;;;;;;;;55.25;44.50;;;;;13.30;39.75;101644.06;146614;632;46010;-70
2024/02/04 07:31:26;;;;;;;;;54.00;43.00;;;;;12.62;41.25;101655.88;146607;630;47012;-71
2024/02/04 07:34:27;;;;;;;;;52.75;42.75;;;;;11.95;42.95;101660.56;146612;675;46044;-71
2024/02/04 07:37:36;;;;;;;;;57.00;45.75;;;;;11.49;44.64;101672.38;146610;603;46012;-70
2024/02/04 07:40:31;;;;;;;;;53.25;43.25;;;;;11.00;44.87;101618.28;146608;566;46010;-71
2024/02/04 07:43:23;;;;;;;;;52.25;40.75;;;;;11.26;45.70;101679.62;146607;588;46017;-70
2024/02/04 07:46:26;;;;;;;;;55.75;45.00;;;;;11.32;45.33;101664.44;146612;605;47010;-70
2024/02/04 07:49:19;;;;;;;;;55.25;44.75;;;;;11.38;45.05;101663.94;146609;657;46017;-70
2024/02/04 07:52:16;;;;;;;;;51.25;40.25;;;;;11.42;45.79;101658.13;146608;604;47020;-70
2024/02/04 07:55:28;;;;;;;;;52.50;42.25;;;;;11.51;44.36;101666.50;146609;711;47012;-70
2024/02/04 07:58:23;;;;;;;;;49.25;39.00;;;;;10.58;44.49;101523.94;146611;579;47020;-69
2024/02/04 08:01:27;;;;;;;;;62.00;47.75;;;;;11.38;45.24;101663.06;146608;570;46016;-70
2024/02/04 08:04:29;;;;;;;;;63.75;48.75;;;;;11.25;45.79;101669.16;146615;634;46021;-72
2024/02/04 08:07:50;;;;;;;;;61.25;48.75;;;;;11.15;46.02;101691.03;146611;619;47014;-70
2024/02/04 08:10:45;;;;;;;;;54.25;44.25;;;;;11.00;46.29;101659.81;146614;578;47010;-70
2024/02/04 08:13:37;;;;;;;;;52.75;41.75;;;;;11.08;46.74;101674.16;146610;635;46012;-71
2024/02/04 08:16:33;;;;;;;;;45.00;37.00;;;;;11.28;46.22;101672.84;146619;563;46010;-70
2024/02/04 08:19:34;;;;;;;;;52.00;42.50;;;;;11.46;44.97;101673.09;146613;608;46013;-69
2024/02/04 08:22:28;;;;;;;;;46.75;39.50;;;;;11.65;44.63;101669.97;146612;607;47020;-68
2024/02/04 08:25:26;;;;;;;;;51.25;41.00;;;;;11.84;44.98;101666.78;146612;588;46015;-67
2024/02/04 08:28:35;;;;;;;;;48.25;38.00;;;;;12.05;44.81;101668.91;146613;589;46010;-69
2024/02/04 08:31:29;;;;;;;;;48.00;39.25;;;;;12.22;44.01;101661.34;146608;554;46016;-69
2024/02/04 08:34:28;;;;;;;;;41.25;33.75;;;;;12.43;43.61;101664.31;146617;621;46020;-67
2024/02/04 08:37:31;;;;;;;;;47.25;37.75;;;;;12.57;43.66;101662.50;146613;620;46016;-68
2024/02/04 08:40:37;;;;;;;;;44.25;33.25;;;;;12.69;43.76;101663.22;146616;669;46010;-69
2024/02/04 08:43:39;;;;;;;;;43.50;35.75;;;;;11.79;43.72;101486.31;146607;587;46016;-69
2024/02/04 08:46:34;;;;;;;;;54.50;44.50;;;;;12.82;43.78;101662.19;146616;565;46020;-68
2024/02/04 08:49:27;;;;;;;;;49.00;40.50;;;;;12.83;43.37;101657.88;146609;586;46016;-68
2024/02/04 08:52:21;;;;;;;;;56.25;44.00;;;;;12.88;43.28;101649.53;146616;612;46010;-67
2024/02/04 08:55:25;;;;;;;;;57.75;44.00;;;;;12.99;44.10;101651.84;146610;607;47014;-69
2024/02/04 08:58:21;;;;;;;;;50.75;41.75;;;;;13.14;42.97;101643.16;146612;571;46012;-68
2024/02/04 09:01:19;;;;;;;;;49.25;39.75;;;;;13.32;43.41;101645.03;146612;563;47012;-69
2024/02/04 09:04:16;;;;;;;;;53.25;42.00;;;;;13.52;43.42;101633.09;146614;567;47021;-70
2024/02/04 09:07:11;;;;;;;;;54.25;42.25;;;;;13.72;42.51;101628.97;146609;569;46915;-69
2024/02/04 09:10:14;;;;;;;;;50.75;41.75;;;;;13.84;42.82;101616.56;146609;689;47020;-69
2024/02/04 09:13:16;;;;;;;;;44.75;36.75;;;;;13.86;42.51;101622.72;146612;579;46012;-70
2024/02/04 09:16:11;;;;;;;;;56.50;43.75;;;;;13.83;42.37;101623.50;146614;582;46020;-71
2024/02/04 09:19:04;;;;;;;;;48.00;40.00;;;;;13.97;43.29;101631.13;146609;564;46017;-72
2024/02/04 09:22:04;;;;;;;;;48.50;39.00;;;;;14.21;42.91;101623.69;146614;569;46010;-69
2024/02/04 09:25:02;;;;;;;;;51.75;40.00;;;;;14.38;41.71;101619.31;146610;572;46012;-70
2024/02/04 09:27:57;;;;;;;;;31.75;28.50;;;;;14.38;41.30;101624.53;146616;573;46020;-71
2024/02/04 09:31:01;;;;;;;;;32.25;29.75;;;;;13.30;41.83;101436.59;146613;616;46014;-72
2024/02/04 09:33:53;;;;;;;;;37.25;31.25;;;;;14.45;42.08;101609.22;146608;627;47012;-69
2024/02/04 09:36:53;;;;;;;;;33.00;29.75;;;;;14.62;41.08;101612.72;146612;590;46012;-71
2024/02/04 09:39:51;;;;;;;;;36.50;30.00;;;;;14.84;41.77;101613.75;146615;621;46020;-68
2024/02/04 09:42:45;;;;;;;;;31.25;29.00;;;;;15.09;41.94;101614.09;146614;584;46017;-69
2024/02/04 09:45:52;;;;;;;;;38.75;31.25;;;;;15.23;40.05;101612.13;146617;587;46020;-70
2024/02/04 09:48:51;;;;;;;;;32.25;28.25;;;;;15.25;41.40;101605.25;146611;608;46916;-70
2024/02/04 09:51:51;;;;;;;;;35.50;30.25;;;;;15.28;41.95;101599.28;146616;593;47010;-70
2024/02/04 09:54:54;;;;;;;;;27.50;26.00;;;;;15.36;41.27;101598.81;146611;566;47016;-69
2024/02/04 09:57:57;;;;;;;;;11.75;10.00;;;;;15.50;38.53;101591.59;146619;587;46010;-69
2024/02/04 10:00:53;;;;;;;;;33.50;28.25;;;;;15.64;39.11;101592.22;146611;607;46016;-70
2024/02/04 10:03:56;;;;;;;;;36.75;31.25;;;;;15.73;40.76;101589.13;146608;664;46912;-69
2024/02/04 10:06:55;;;;;;;;;42.00;32.50;;;;;15.82;39.94;101587.81;146614;594;46014;-68
2024/02/04 10:09:59;;;;;;;;;33.75;31.00;;;;;15.96;39.08;101585.81;146614;576;45021;-69
2024/02/04 10:12:56;;;;;;;;;33.25;29.50;;;;;16.15;39.76;101582.25;146614;570;46017;-69
2024/02/04 10:16:05;;;;;;;;;13.00;11.75;;;;;16.31;36.56;101578.56;146613;589;47020;-68
2024/02/04 10:19:02;;;;;;;;;9.25;7.25;;;;;16.48;34.44;101574.00;146615;577;46014;-69
2024/02/04 10:22:07;;;;;;;;;10.75;8.25;;;;;16.61;37.54;101564.09;146620;637;46020;-69
2024/02/04 10:25:31;;;;;;;;;12.00;12.00;;;;;16.77;34.39;101563.00;146615;579;46016;-70
2024/02/04 10:28:24;;;;;;;;;12.75;12.25;;;;;16.82;34.42;101543.16;146617;632;46032;-69
2024/02/04 10:31:17;;;;;;;;;15.25;13.75;;;;;16.94;34.97;101544.44;146612;624;46913;-71
2024/02/04 10:34:22;;;;;;;;;20.50;18.75;;;;;17.08;36.67;101541.50;146617;578;47010;-69
2024/02/04 10:37:17;;;;;;;;;21.50;20.50;;;;;17.21;37.32;101534.09;146616;569;45016;-70
2024/02/04 10:40:16;;;;;;;;;33.75;28.25;;;;;17.33;37.03;101525.81;146615;581;46011;-70
2024/02/04 10:43:15;;;;;;;;;26.50;24.50;;;;;17.42;37.57;101521.78;146605;579;47915;-70
2024/02/04 10:46:23;;;;;;;;;28.75;25.00;;;;;17.54;39.52;101518.72;146612;594;46020;-69
2024/02/04 10:49:20;;;;;;;;;29.00;23.50;;;;;17.68;37.52;101511.31;146613;590;48014;-70
2024/02/04 10:52:15;;;;;;;;;33.25;27.75;;;;;17.76;36.26;101505.50;146616;590;46010;-68
2024/02/04 10:55:19;;;;;;;;;19.75;18.75;;;;;17.81;36.79;101516.19;146609;579;47013;-70
2024/02/04 10:58:28;;;;;;;;;23.00;21.00;;;;;17.83;37.51;101506.62;146618;571;46020;-69
2024/02/04 11:01:33;;;;;;;;;30.50;28.00;;;;;17.89;36.09;101503.34;146612;573;47016;-69
2024/02/04 11:04:30;;;;;;;;;17.25;15.50;;;;;17.97;35.10;101491.34;146615;577;46020;-72
2024/02/04 11:07:35;;;;;;;;;20.75;18.00;;;;;18.06;36.78;101485.53;146613;588;46030;-68
2024/02/04 11:10:38;;;;;;;;;21.25;21.25;;;;;18.20;35.59;101484.25;146617;601;47010;-70
2024/02/04 11:13:48;;;;;;;;;19.50;16.25;;;;;18.30;36.29;101495.94;146614;645;46012;-68
2024/02/04 11:17:22;;;;;;;;;23.25;22.00;;;;;18.37;36.41;101498.78;146619;604;46018;-67
2024/02/04 11:21:04;;;;;;;;;18.25;13.00;;;;;18.50;36.90;101486.94;146611;627;46016;-70
2024/02/04 11:24:26;;;;;;;;;10.00;8.25;;;;;18.65;35.56;101482.16;146616;636;46021;-69
2024/02/04 11:27:32;;;;;;;;;9.25;9.25;;;;;18.82;34.31;101482.72;146614;578;47016;-69
2024/02/04 11:30:27;;;;;;;;;13.00;9.25;;;;;18.95;33.32;101478.69;146620;569;46020;-69
2024/02/04 11:33:44;;;;;;;;;12.75;12.25;;;;;19.08;34.17;101474.69;146616;570;46028;-68
2024/02/04 11:37:07;;;;;;;;;14.25;10.75;;;;;19.22;35.80;101469.78;146617;563;46020;-70
2024/02/04 11:40:07;;;;;;;;;12.50;10.00;;;;;19.35;33.72;101472.81;146610;632;47012;-69
2024/02/04 11:43:14;;;;;;;;;10.00;7.75;;;;;19.46;34.02;101461.69;146616;666;46012;-68
2024/02/04 11:46:23;;;;;;;;;10.00;8.67;;;;;19.50;32.64;101453.03;146617;584;46911;-68
2024/02/04 11:49:36;;;;;;;;;9.25;8.75;;;;;19.59;34.58;101453.28;146621;695;46020;-68
2024/02/04 11:52:34;;;;;;;;;11.00;11.00;;;;;19.68;33.30;101445.66;146617;577;46016;-69
2024/02/04 11:55:27;;;;;;;;;12.00;11.00;;;;;19.74;31.75;101443.19;146609;613;47021;-68
2024/02/04 11:58:22;;;;;;;;;16.25;14.00;;;;;19.75;32.57;101438.78;146613;685;47012;-68
2024/02/04 12:01:19;;;;;;;;;11.25;10.00;;;;;19.81;33.32;101428.41;146612;660;47010;-67
2024/02/04 12:04:21;;;;;;;;;10.75;9.00;;;;;19.92;33.42;101426.06;146617;605;47012;-69
2024/02/04 12:07:13;;;;;;;;;12.75;12.50;;;;;20.03;31.42;101427.19;146619;555;46020;-68
2024/02/04 12:10:34;;;;;;;;;14.50;13.50;;;;;20.08;34.01;101425.56;146615;565;47012;-70
2024/02/04 12:13:29;;;;;;;;;12.75;12.75;;;;;20.19;32.19;101428.47;146612;715;46020;-69
2024/02/04 12:16:28;;;;;;;;;13.75;9.75;;;;;20.28;32.86;101431.31;146613;621;47012;-69
2024/02/04 12:19:23;;;;;;;;;7.75;5.50;;;;;20.32;30.91;101427.00;146621;638;46020;-71
2024/02/04 12:22:23;;;;;;;;;11.75;10.25;;;;;20.34;32.17;101425.28;146610;641;47911;-69
2024/02/04 12:25:18;;;;;;;;;8.00;8.00;;;;;20.40;32.18;101420.16;146616;572;47020;-68
2024/02/04 12:28:15;;;;;;;;;18.75;16.25;;;;;20.43;32.15;101405.28;146607;582;47014;-67
2024/02/04 12:31:10;;;;;;;;;14.50;14.00;;;;;20.46;32.12;101405.38;146616;591;46010;-69
2024/02/04 12:34:10;;;;;;;;;17.25;16.25;;;;;19.67;32.59;101272.88;146612;569;47021;-68
2024/02/04 12:37:08;;;;;;;;;20.25;18.50;;;;;19.84;34.30;101287.31;146615;575;48010;-68
2024/02/04 12:40:09;;;;;;;;;18.50;16.00;;;;;20.61;32.39;101409.22;146614;630;46017;-69
2024/02/04 12:43:07;;;;;;;;;22.00;19.00;;;;;20.63;33.79;101410.16;146615;593;46020;-69
2024/02/04 12:46:03;;;;;;;;;25.75;23.75;;;;;20.66;33.62;101418.12;146612;614;46912;-69
2024/02/04 12:49:04;;;;;;;;;18.50;18.25;;;;;20.62;32.67;101411.88;146618;565;46020;-69
2024/02/04 12:51:57;;;;;;;;;13.25;12.75;;;;;20.61;32.51;101412.75;146614;583;47012;-68
2024/02/04 12:54:52;;;;;;;;;7.00;6.67;;;;;20.66;31.03;101394.41;146618;613;46020;-69
2024/02/04 12:57:48;;;;;;;;;6.00;5.00;;;;;20.70;30.32;101404.16;146620;638;46012;-67
2024/02/04 13:00:41;;;;;;;;;9.75;9.00;;;;;20.71;30.86;101403.28;146620;631;46020;-69
2024/02/04 13:03:35;;;;;;;;;8.67;6.00;;;;;20.69;30.32;101398.00;146616;670;47012;-69
2024/02/04 13:06:34;;;;;;;;;9.67;7.67;;;;;20.70;31.32;101397.13;146618;672;46020;-69
2024/02/04 13:09:32;;;;;;;;;8.50;7.00;;;;;20.83;31.11;101395.63;146617;619;46014;-69
2024/02/04 13:12:28;;;;;;;;;5.33;5.00;;;;;20.99;30.22;101392.41;146616;602;47010;-69
2024/02/04 13:15:20;;;;;;;;;4.00;3.00;;;;;21.10;30.75;101384.72;146617;570;47912;-69
2024/02/04 13:18:15;;;;;;;;;4.00;3.67;;;;;21.27;29.99;101387.66;146619;561;47020;-69
2024/02/04 13:21:21;;;;;;;;;6.00;6.00;;;;;21.41;32.72;101391.47;146616;574;47012;-68
2024/02/04 13:24:19;;;;;;;;;8.50;7.75;;;;;21.55;31.33;101394.34;146619;570;47021;-71
2024/02/04 13:27:19;;;;;;;;;38.25;30.25;;;;;21.72;31.56;101397.28;146611;569;46016;-69
2024/02/04 13:30:22;;;;;;;;;15.50;13.00;;;;;21.91;32.48;101398.47;146613;567;46021;-69
2024/02/04 13:33:18;;;;;;;;;9.50;9.50;;;;;22.05;31.32;101396.91;146614;571;46016;-68
2024/02/04 13:36:22;;;;;;;;;13.50;10.75;;;;;22.21;33.19;101395.44;146620;580;46010;-68
2024/02/04 13:39:26;;;;;;;;;9.67;8.00;;;;;22.39;30.24;101393.88;146612;578;46012;-69
2024/02/04 13:42:21;;;;;;;;;11.33;9.33;;;;;22.53;29.63;101402.91;146619;569;46010;-67
2024/02/04 13:45:16;;;;;;;;;11.00;9.50;;;;;22.65;29.87;101392.47;146614;615;46912;-69
2024/02/04 13:48:12;;;;;;;;;6.00;4.67;;;;;22.78;29.26;101391.75;146621;659;46020;-69
2024/02/04 13:51:07;;;;;;;;;9.00;8.33;;;;;22.85;29.37;101387.41;146614;638;46034;-70
2024/02/04 13:54:00;;;;;;;;;9.50;9.50;;;;;22.95;29.51;101391.09;146616;570;47010;-69